Capitol Logistics 348




KMHT
Manchester Airport
Manchester, New Hampshire
KBWI
Baltimore/Washington International Airport
Baltimore, Maryland

Activity Log

Date Flight Route Aircraft Duration
09/04/2021 CPX348 PPORT3 NELIE Q75 MXE V378 NUGGY TRISH3 B738 1h 18m
08/15/2021 CPX348 PPORT3 NELIE Q75 MXE V378 NUGGY TRISH3 B752 1h 24m
04/15/2021 CPX348 PPORT3 NELIE Q75 MXE V378 NUGGY TRISH3 B752 1h 26m
04/11/2021 CPX348 PPORT3 NELIE Q75 MXE V378 NUGGY TRISH3 B752 1h 29m

Route Details

Aircraft Information
Group: Narrowbodies
Types: B738,B752
Route Data
Demand: V
Distance: 327nm
Duration: 1h 12m
Recm'd Route: PPORT3 NELIE Q75 MXE V378 NUGGY TRISH3
Origin Wx: KMHT 270553Z 19007KT 10SM OVC031 18/12 A3001 RMK AO2 SLP172 T01780122 10206 20172 58017
Dest. Wx: KBWI 270554Z 16004KT 5SM BR OVC004 20/19 A3001 RMK AO2 SLP161 T02000189 10211 20200 58023
Notes:

Financial History
Total Freight: 177,965lbs
Average Load: 44,491lbs/flt
Fuel Used: 40,770lbs
Avg. Fuel Used: 10,193lbs/flt
Fuel Expense: $17,520
Avg. Fuel Expense: $4,380
Avg. Fuel Cost: $0.41/lbs
Total Gross Income: $362,387
Pilot Pay: $506
Total Expenses: $47,863
Total Revenue: $296,276
Average Revenue: $90,596.79